sensor_id;sensor_type;location;lat;lon;timestamp;P1;durP1;ratioP1;P2;durP2;ratioP2
71106;SDS011;58763;47.982;11.516;2023-08-31T00:01:35;3.70;;;2.63;;
71106;SDS011;58763;47.982;11.516;2023-08-31T00:04:01;4.53;;;2.85;;
71106;SDS011;58763;47.982;11.516;2023-08-31T00:06:26;4.00;;;2.58;;
71106;SDS011;58763;47.982;11.516;2023-08-31T00:08:52;4.32;;;2.70;;
71106;SDS011;58763;47.982;11.516;2023-08-31T00:11:17;4.30;;;2.60;;
71106;SDS011;58763;47.982;11.516;2023-08-31T00:13:43;4.38;;;2.80;;
71106;SDS011;58763;47.982;11.516;2023-08-31T00:16:09;4.10;;;2.45;;
71106;SDS011;58763;47.982;11.516;2023-08-31T00:18:35;5.28;;;2.50;;
71106;SDS011;58763;47.982;11.516;2023-08-31T00:21:01;4.18;;;2.65;;
71106;SDS011;58763;47.982;11.516;2023-08-31T00:23:28;4.18;;;2.78;;
71106;SDS011;58763;47.982;11.516;2023-08-31T00:25:53;4.57;;;2.42;;
71106;SDS011;58763;47.982;11.516;2023-08-31T00:28:20;3.47;;;2.35;;
71106;SDS011;58763;47.982;11.516;2023-08-31T00:30:46;4.38;;;2.63;;
71106;SDS011;58763;47.982;11.516;2023-08-31T00:33:14;3.75;;;2.65;;
71106;SDS011;58763;47.982;11.516;2023-08-31T00:35:40;4.20;;;2.53;;
71106;SDS011;58763;47.982;11.516;2023-08-31T00:40:40;4.63;;;2.80;;
71106;SDS011;58763;47.982;11.516;2023-08-31T00:43:09;5.30;;;2.83;;
71106;SDS011;58763;47.982;11.516;2023-08-31T00:45:35;7.85;;;3.17;;
71106;SDS011;58763;47.982;11.516;2023-08-31T00:48:03;4.18;;;2.90;;
71106;SDS011;58763;47.982;11.516;2023-08-31T00:50:29;5.93;;;2.78;;
71106;SDS011;58763;47.982;11.516;2023-08-31T00:52:55;4.03;;;2.78;;
71106;SDS011;58763;47.982;11.516;2023-08-31T00:55:22;4.47;;;2.80;;
71106;SDS011;58763;47.982;11.516;2023-08-31T00:57:48;4.68;;;3.40;;
71106;SDS011;58763;47.982;11.516;2023-08-31T01:00:14;5.95;;;2.97;;
71106;SDS011;58763;47.982;11.516;2023-08-31T01:02:43;5.45;;;2.88;;
71106;SDS011;58763;47.982;11.516;2023-08-31T01:07:57;3.65;;;2.33;;
71106;SDS011;58763;47.982;11.516;2023-08-31T01:10:43;5.82;;;3.03;;
71106;SDS011;58763;47.982;11.516;2023-08-31T01:13:30;4.65;;;2.80;;
71106;SDS011;58763;47.982;11.516;2023-08-31T01:16:00;4.38;;;2.92;;
71106;SDS011;58763;47.982;11.516;2023-08-31T01:18:30;5.05;;;2.80;;
71106;SDS011;58763;47.982;11.516;2023-08-31T01:21:01;4.80;;;2.85;;
71106;SDS011;58763;47.982;11.516;2023-08-31T01:23:52;4.78;;;2.78;;
71106;SDS011;58763;47.982;11.516;2023-08-31T01:26:21;5.53;;;2.72;;
71106;SDS011;58763;47.982;11.516;2023-08-31T01:28:48;3.80;;;2.55;;
71106;SDS011;58763;47.982;11.516;2023-08-31T01:31:14;4.22;;;2.45;;
71106;SDS011;58763;47.982;11.516;2023-08-31T01:33:40;5.68;;;2.92;;
71106;SDS011;58763;47.982;11.516;2023-08-31T01:36:08;4.25;;;2.72;;
71106;SDS011;58763;47.982;11.516;2023-08-31T01:39:10;5.05;;;2.55;;
71106;SDS011;58763;47.982;11.516;2023-08-31T01:41:43;4.72;;;2.38;;
71106;SDS011;58763;47.982;11.516;2023-08-31T01:44:16;4.07;;;2.67;;
71106;SDS011;58763;47.982;11.516;2023-08-31T01:46:45;4.35;;;2.45;;
71106;SDS011;58763;47.982;11.516;2023-08-31T01:49:11;7.32;;;2.65;;
71106;SDS011;58763;47.982;11.516;2023-08-31T01:51:37;4.97;;;2.92;;
71106;SDS011;58763;47.982;11.516;2023-08-31T01:54:02;4.60;;;3.08;;
71106;SDS011;58763;47.982;11.516;2023-08-31T01:56:28;4.75;;;2.95;;
71106;SDS011;58763;47.982;11.516;2023-08-31T01:58:54;5.40;;;2.70;;
71106;SDS011;58763;47.982;11.516;2023-08-31T02:01:19;4.43;;;3.05;;
71106;SDS011;58763;47.982;11.516;2023-08-31T02:03:45;4.40;;;2.65;;
71106;SDS011;58763;47.982;11.516;2023-08-31T02:06:11;3.60;;;2.25;;
71106;SDS011;58763;47.982;11.516;2023-08-31T02:08:36;6.40;;;2.58;;
71106;SDS011;58763;47.982;11.516;2023-08-31T02:11:02;4.60;;;2.63;;
71106;SDS011;58763;47.982;11.516;2023-08-31T02:13:27;4.18;;;2.80;;
71106;SDS011;58763;47.982;11.516;2023-08-31T02:15:54;4.28;;;2.40;;
71106;SDS011;58763;47.982;11.516;2023-08-31T02:18:20;4.75;;;3.13;;
71106;SDS011;58763;47.982;11.516;2023-08-31T02:20:46;6.35;;;3.20;;
71106;SDS011;58763;47.982;11.516;2023-08-31T02:23:11;4.72;;;2.72;;
71106;SDS011;58763;47.982;11.516;2023-08-31T02:25:37;4.53;;;2.90;;
71106;SDS011;58763;47.982;11.516;2023-08-31T02:28:03;3.95;;;2.75;;
71106;SDS011;58763;47.982;11.516;2023-08-31T02:30:28;4.95;;;2.72;;
71106;SDS011;58763;47.982;11.516;2023-08-31T02:32:54;4.38;;;2.60;;
71106;SDS011;58763;47.982;11.516;2023-08-31T02:35:19;4.38;;;2.70;;
71106;SDS011;58763;47.982;11.516;2023-08-31T02:37:45;4.93;;;2.50;;
71106;SDS011;58763;47.982;11.516;2023-08-31T02:40:11;4.60;;;2.40;;
71106;SDS011;58763;47.982;11.516;2023-08-31T02:42:37;5.10;;;2.67;;
71106;SDS011;58763;47.982;11.516;2023-08-31T02:45:02;5.55;;;2.50;;
71106;SDS011;58763;47.982;11.516;2023-08-31T02:47:29;4.70;;;2.70;;
71106;SDS011;58763;47.982;11.516;2023-08-31T02:49:54;4.63;;;2.30;;
71106;SDS011;58763;47.982;11.516;2023-08-31T02:52:20;3.67;;;2.30;;
71106;SDS011;58763;47.982;11.516;2023-08-31T02:54:45;4.28;;;2.42;;
71106;SDS011;58763;47.982;11.516;2023-08-31T02:57:11;4.10;;;2.45;;
71106;SDS011;58763;47.982;11.516;2023-08-31T02:59:36;4.75;;;2.30;;
71106;SDS011;58763;47.982;11.516;2023-08-31T03:02:05;3.55;;;2.08;;
71106;SDS011;58763;47.982;11.516;2023-08-31T03:04:30;3.72;;;1.90;;
71106;SDS011;58763;47.982;11.516;2023-08-31T03:06:56;3.78;;;1.90;;
71106;SDS011;58763;47.982;11.516;2023-08-31T03:09:21;2.85;;;1.63;;
71106;SDS011;58763;47.982;11.516;2023-08-31T03:11:47;3.85;;;1.63;;
71106;SDS011;58763;47.982;11.516;2023-08-31T03:14:12;3.28;;;1.48;;
71106;SDS011;58763;47.982;11.516;2023-08-31T03:16:38;3.15;;;1.50;;
71106;SDS011;58763;47.982;11.516;2023-08-31T03:19:04;2.72;;;1.40;;
71106;SDS011;58763;47.982;11.516;2023-08-31T03:21:30;2.67;;;1.27;;
71106;SDS011;58763;47.982;11.516;2023-08-31T03:23:55;2.83;;;1.10;;
71106;SDS011;58763;47.982;11.516;2023-08-31T03:26:21;2.78;;;1.40;;
71106;SDS011;58763;47.982;11.516;2023-08-31T03:28:46;2.55;;;1.30;;
71106;SDS011;58763;47.982;11.516;2023-08-31T03:31:12;3.17;;;1.38;;
71106;SDS011;58763;47.982;11.516;2023-08-31T03:33:37;4.53;;;1.40;;
71106;SDS011;58763;47.982;11.516;2023-08-31T03:36:03;3.15;;;1.13;;
71106;SDS011;58763;47.982;11.516;2023-08-31T03:38:30;3.90;;;1.38;;
71106;SDS011;58763;47.982;11.516;2023-08-31T03:40:56;3.03;;;1.45;;
71106;SDS011;58763;47.982;11.516;2023-08-31T03:43:23;2.42;;;1.30;;
71106;SDS011;58763;47.982;11.516;2023-08-31T03:45:48;2.80;;;1.40;;
71106;SDS011;58763;47.982;11.516;2023-08-31T03:48:14;2.95;;;1.50;;
71106;SDS011;58763;47.982;11.516;2023-08-31T03:50:40;2.55;;;1.38;;
71106;SDS011;58763;47.982;11.516;2023-08-31T03:53:05;3.38;;;1.67;;
71106;SDS011;58763;47.982;11.516;2023-08-31T03:55:31;3.60;;;1.75;;
71106;SDS011;58763;47.982;11.516;2023-08-31T03:57:56;3.70;;;2.00;;
71106;SDS011;58763;47.982;11.516;2023-08-31T04:00:23;3.30;;;1.73;;
71106;SDS011;58763;47.982;11.516;2023-08-31T04:02:49;3.47;;;1.85;;
71106;SDS011;58763;47.982;11.516;2023-08-31T04:05:14;4.40;;;1.83;;
71106;SDS011;58763;47.982;11.516;2023-08-31T04:07:41;3.65;;;1.92;;
71106;SDS011;58763;47.982;11.516;2023-08-31T04:10:07;3.60;;;2.10;;
71106;SDS011;58763;47.982;11.516;2023-08-31T04:12:33;6.10;;;1.98;;
71106;SDS011;58763;47.982;11.516;2023-08-31T04:14:59;3.63;;;2.20;;
71106;SDS011;58763;47.982;11.516;2023-08-31T04:17:25;6.00;;;2.47;;
71106;SDS011;58763;47.982;11.516;2023-08-31T04:19:51;4.68;;;2.78;;
71106;SDS011;58763;47.982;11.516;2023-08-31T04:22:17;4.07;;;2.60;;
71106;SDS011;58763;47.982;11.516;2023-08-31T04:24:42;4.22;;;2.55;;
71106;SDS011;58763;47.982;11.516;2023-08-31T04:27:08;6.05;;;2.90;;
71106;SDS011;58763;47.982;11.516;2023-08-31T04:29:33;6.22;;;3.05;;
71106;SDS011;58763;47.982;11.516;2023-08-31T04:31:59;4.50;;;2.60;;
71106;SDS011;58763;47.982;11.516;2023-08-31T04:34:24;5.57;;;3.40;;
71106;SDS011;58763;47.982;11.516;2023-08-31T04:36:50;4.95;;;2.92;;
71106;SDS011;58763;47.982;11.516;2023-08-31T04:39:16;4.20;;;2.45;;
71106;SDS011;58763;47.982;11.516;2023-08-31T04:41:41;4.53;;;2.72;;
71106;SDS011;58763;47.982;11.516;2023-08-31T04:44:06;4.85;;;2.30;;
71106;SDS011;58763;47.982;11.516;2023-08-31T04:46:32;5.72;;;2.58;;
71106;SDS011;58763;47.982;11.516;2023-08-31T04:48:59;4.05;;;2.20;;
71106;SDS011;58763;47.982;11.516;2023-08-31T04:51:28;4.15;;;2.30;;
71106;SDS011;58763;47.982;11.516;2023-08-31T04:53:54;4.97;;;2.53;;
71106;SDS011;58763;47.982;11.516;2023-08-31T04:56:20;3.63;;;1.98;;
71106;SDS011;58763;47.982;11.516;2023-08-31T04:58:45;6.57;;;2.50;;
71106;SDS011;58763;47.982;11.516;2023-08-31T05:01:11;3.80;;;2.05;;
71106;SDS011;58763;47.982;11.516;2023-08-31T05:03:36;4.13;;;2.15;;
71106;SDS011;58763;47.982;11.516;2023-08-31T05:06:02;4.10;;;2.63;;
71106;SDS011;58763;47.982;11.516;2023-08-31T05:08:30;4.97;;;2.75;;
71106;SDS011;58763;47.982;11.516;2023-08-31T05:10:55;4.72;;;2.35;;
71106;SDS011;58763;47.982;11.516;2023-08-31T05:13:21;4.22;;;2.13;;
71106;SDS011;58763;47.982;11.516;2023-08-31T05:15:46;3.90;;;2.33;;
71106;SDS011;58763;47.982;11.516;2023-08-31T05:18:12;3.90;;;2.08;;
71106;SDS011;58763;47.982;11.516;2023-08-31T05:20:37;4.40;;;2.10;;
71106;SDS011;58763;47.982;11.516;2023-08-31T05:23:03;5.68;;;2.47;;
71106;SDS011;58763;47.982;11.516;2023-08-31T05:25:28;3.63;;;2.10;;
71106;SDS011;58763;47.982;11.516;2023-08-31T05:27:54;3.80;;;1.92;;
71106;SDS011;58763;47.982;11.516;2023-08-31T05:30:19;4.18;;;2.13;;
71106;SDS011;58763;47.982;11.516;2023-08-31T05:32:45;4.05;;;2.03;;
71106;SDS011;58763;47.982;11.516;2023-08-31T05:35:11;3.85;;;2.00;;
71106;SDS011;58763;47.982;11.516;2023-08-31T05:37:36;4.70;;;2.25;;
71106;SDS011;58763;47.982;11.516;2023-08-31T05:40:05;4.57;;;2.58;;
71106;SDS011;58763;47.982;11.516;2023-08-31T05:42:35;4.65;;;2.28;;
71106;SDS011;58763;47.982;11.516;2023-08-31T05:45:01;4.85;;;2.60;;
71106;SDS011;58763;47.982;11.516;2023-08-31T05:47:26;4.97;;;2.38;;
71106;SDS011;58763;47.982;11.516;2023-08-31T05:49:52;4.65;;;2.22;;
71106;SDS011;58763;47.982;11.516;2023-08-31T05:52:17;4.00;;;2.22;;
71106;SDS011;58763;47.982;11.516;2023-08-31T05:54:43;3.97;;;2.33;;
71106;SDS011;58763;47.982;11.516;2023-08-31T05:57:08;3.60;;;2.25;;
71106;SDS011;58763;47.982;11.516;2023-08-31T05:59:34;4.97;;;2.47;;
71106;SDS011;58763;47.982;11.516;2023-08-31T06:01:59;4.47;;;2.50;;
71106;SDS011;58763;47.982;11.516;2023-08-31T06:04:25;4.50;;;2.38;;
71106;SDS011;58763;47.982;11.516;2023-08-31T06:06:50;4.13;;;2.20;;
71106;SDS011;58763;47.982;11.516;2023-08-31T06:09:19;3.95;;;2.30;;
71106;SDS011;58763;47.982;11.516;2023-08-31T06:11:45;4.35;;;2.08;;
71106;SDS011;58763;47.982;11.516;2023-08-31T06:14:11;4.80;;;2.17;;
71106;SDS011;58763;47.982;11.516;2023-08-31T06:16:36;4.00;;;2.15;;
71106;SDS011;58763;47.982;11.516;2023-08-31T06:19:02;3.55;;;2.08;;
71106;SDS011;58763;47.982;11.516;2023-08-31T06:21:28;4.03;;;2.35;;
71106;SDS011;58763;47.982;11.516;2023-08-31T06:23:54;4.68;;;2.40;;
71106;SDS011;58763;47.982;11.516;2023-08-31T06:26:19;5.80;;;2.25;;
71106;SDS011;58763;47.982;11.516;2023-08-31T06:28:45;4.85;;;2.17;;
71106;SDS011;58763;47.982;11.516;2023-08-31T06:31:10;4.20;;;2.40;;
71106;SDS011;58763;47.982;11.516;2023-08-31T06:33:36;3.80;;;2.20;;
71106;SDS011;58763;47.982;11.516;2023-08-31T06:36:01;4.55;;;2.40;;
71106;SDS011;58763;47.982;11.516;2023-08-31T06:38:27;4.65;;;2.45;;
71106;SDS011;58763;47.982;11.516;2023-08-31T06:40:53;4.88;;;2.25;;
71106;SDS011;58763;47.982;11.516;2023-08-31T06:43:24;4.57;;;2.42;;
71106;SDS011;58763;47.982;11.516;2023-08-31T06:45:52;5.55;;;2.85;;
71106;SDS011;58763;47.982;11.516;2023-08-31T06:48:18;5.05;;;2.60;;
71106;SDS011;58763;47.982;11.516;2023-08-31T06:50:43;4.38;;;2.50;;
71106;SDS011;58763;47.982;11.516;2023-08-31T06:53:09;4.32;;;2.17;;
71106;SDS011;58763;47.982;11.516;2023-08-31T06:55:34;4.47;;;2.70;;
71106;SDS011;58763;47.982;11.516;2023-08-31T06:58:00;5.15;;;2.47;;
71106;SDS011;58763;47.982;11.516;2023-08-31T07:00:27;4.38;;;2.60;;
71106;SDS011;58763;47.982;11.516;2023-08-31T07:02:53;4.22;;;2.45;;
71106;SDS011;58763;47.982;11.516;2023-08-31T07:05:18;3.95;;;2.50;;
71106;SDS011;58763;47.982;11.516;2023-08-31T07:07:51;5.70;;;2.40;;
71106;SDS011;58763;47.982;11.516;2023-08-31T07:10:18;4.03;;;2.28;;
71106;SDS011;58763;47.982;11.516;2023-08-31T07:12:43;4.80;;;2.60;;
71106;SDS011;58763;47.982;11.516;2023-08-31T07:15:09;3.97;;;2.40;;
71106;SDS011;58763;47.982;11.516;2023-08-31T07:17:35;4.20;;;2.30;;
71106;SDS011;58763;47.982;11.516;2023-08-31T07:20:00;4.10;;;2.30;;
71106;SDS011;58763;47.982;11.516;2023-08-31T07:22:25;4.82;;;2.10;;
71106;SDS011;58763;47.982;11.516;2023-08-31T07:24:51;4.32;;;2.25;;
71106;SDS011;58763;47.982;11.516;2023-08-31T07:27:16;4.82;;;2.10;;
71106;SDS011;58763;47.982;11.516;2023-08-31T07:29:42;4.07;;;2.28;;
71106;SDS011;58763;47.982;11.516;2023-08-31T07:32:07;4.22;;;2.20;;
71106;SDS011;58763;47.982;11.516;2023-08-31T07:34:33;5.20;;;2.38;;
71106;SDS011;58763;47.982;11.516;2023-08-31T07:36:59;4.60;;;2.28;;
71106;SDS011;58763;47.982;11.516;2023-08-31T07:39:24;4.45;;;2.20;;
71106;SDS011;58763;47.982;11.516;2023-08-31T07:41:50;4.20;;;2.20;;
71106;SDS011;58763;47.982;11.516;2023-08-31T07:44:15;4.22;;;2.40;;
71106;SDS011;58763;47.982;11.516;2023-08-31T07:46:41;5.53;;;2.40;;
71106;SDS011;58763;47.982;11.516;2023-08-31T07:49:06;4.07;;;2.05;;
71106;SDS011;58763;47.982;11.516;2023-08-31T07:51:32;4.90;;;2.40;;
71106;SDS011;58763;47.982;11.516;2023-08-31T07:53:59;4.68;;;2.40;;
71106;SDS011;58763;47.982;11.516;2023-08-31T07:56:25;4.80;;;2.38;;
71106;SDS011;58763;47.982;11.516;2023-08-31T07:58:50;5.00;;;2.20;;
71106;SDS011;58763;47.982;11.516;2023-08-31T08:01:16;4.78;;;2.50;;
71106;SDS011;58763;47.982;11.516;2023-08-31T08:03:42;4.32;;;1.90;;
71106;SDS011;58763;47.982;11.516;2023-08-31T08:06:08;5.68;;;2.20;;
71106;SDS011;58763;47.982;11.516;2023-08-31T08:08:33;5.15;;;2.30;;
71106;SDS011;58763;47.982;11.516;2023-08-31T08:10:59;4.57;;;2.42;;
71106;SDS011;58763;47.982;11.516;2023-08-31T08:13:25;3.60;;;2.13;;
71106;SDS011;58763;47.982;11.516;2023-08-31T08:15:50;4.38;;;2.35;;
71106;SDS011;58763;47.982;11.516;2023-08-31T08:18:16;4.78;;;2.58;;
71106;SDS011;58763;47.982;11.516;2023-08-31T08:20:42;4.30;;;2.20;;
71106;SDS011;58763;47.982;11.516;2023-08-31T08:23:07;6.45;;;2.72;;
71106;SDS011;58763;47.982;11.516;2023-08-31T08:25:32;4.78;;;2.63;;
71106;SDS011;58763;47.982;11.516;2023-08-31T08:27:58;3.80;;;2.20;;
71106;SDS011;58763;47.982;11.516;2023-08-31T08:30:24;4.40;;;2.20;;
71106;SDS011;58763;47.982;11.516;2023-08-31T08:32:49;3.70;;;1.98;;
71106;SDS011;58763;47.982;11.516;2023-08-31T08:35:15;4.97;;;2.30;;
71106;SDS011;58763;47.982;11.516;2023-08-31T08:37:40;3.92;;;2.10;;
71106;SDS011;58763;47.982;11.516;2023-08-31T08:40:06;4.38;;;2.35;;
71106;SDS011;58763;47.982;11.516;2023-08-31T08:42:32;5.15;;;2.20;;
71106;SDS011;58763;47.982;11.516;2023-08-31T08:45:04;4.10;;;2.08;;
71106;SDS011;58763;47.982;11.516;2023-08-31T08:47:31;5.03;;;2.17;;
71106;SDS011;58763;47.982;11.516;2023-08-31T08:49:58;3.95;;;2.40;;
71106;SDS011;58763;47.982;11.516;2023-08-31T08:52:25;4.00;;;2.08;;
71106;SDS011;58763;47.982;11.516;2023-08-31T08:54:51;3.55;;;2.10;;
71106;SDS011;58763;47.982;11.516;2023-08-31T08:57:18;4.53;;;2.20;;
71106;SDS011;58763;47.982;11.516;2023-08-31T08:59:44;5.03;;;2.30;;
71106;SDS011;58763;47.982;11.516;2023-08-31T09:02:10;5.00;;;2.20;;
71106;SDS011;58763;47.982;11.516;2023-08-31T09:04:36;3.50;;;1.95;;
71106;SDS011;58763;47.982;11.516;2023-08-31T09:07:02;4.53;;;2.00;;
71106;SDS011;58763;47.982;11.516;2023-08-31T09:09:28;4.15;;;2.13;;
71106;SDS011;58763;47.982;11.516;2023-08-31T09:11:54;4.05;;;2.33;;
71106;SDS011;58763;47.982;11.516;2023-08-31T09:14:21;5.35;;;2.00;;
71106;SDS011;58763;47.982;11.516;2023-08-31T09:16:48;3.90;;;2.28;;
71106;SDS011;58763;47.982;11.516;2023-08-31T09:19:21;4.70;;;2.30;;
71106;SDS011;58763;47.982;11.516;2023-08-31T09:21:48;3.47;;;1.77;;
71106;SDS011;58763;47.982;11.516;2023-08-31T09:24:15;4.57;;;2.10;;
71106;SDS011;58763;47.982;11.516;2023-08-31T09:26:47;3.13;;;1.77;;
71106;SDS011;58763;47.982;11.516;2023-08-31T09:29:13;4.68;;;2.15;;
71106;SDS011;58763;47.982;11.516;2023-08-31T09:31:43;3.92;;;1.98;;
71106;SDS011;58763;47.982;11.516;2023-08-31T09:34:10;4.30;;;2.10;;
71106;SDS011;58763;47.982;11.516;2023-08-31T09:36:36;3.50;;;1.85;;
71106;SDS011;58763;47.982;11.516;2023-08-31T09:39:03;3.60;;;2.05;;
71106;SDS011;58763;47.982;11.516;2023-08-31T09:41:30;3.85;;;2.05;;
71106;SDS011;58763;47.982;11.516;2023-08-31T09:43:56;3.53;;;1.92;;
71106;SDS011;58763;47.982;11.516;2023-08-31T09:46:39;3.25;;;1.80;;
71106;SDS011;58763;47.982;11.516;2023-08-31T09:49:04;4.20;;;1.80;;
71106;SDS011;58763;47.982;11.516;2023-08-31T09:51:31;4.10;;;1.98;;
71106;SDS011;58763;47.982;11.516;2023-08-31T09:53:58;3.65;;;1.55;;
71106;SDS011;58763;47.982;11.516;2023-08-31T09:56:27;3.78;;;1.75;;
71106;SDS011;58763;47.982;11.516;2023-08-31T09:58:58;3.22;;;1.60;;
71106;SDS011;58763;47.982;11.516;2023-08-31T10:01:23;4.03;;;1.52;;
71106;SDS011;58763;47.982;11.516;2023-08-31T10:03:49;3.30;;;1.40;;
71106;SDS011;58763;47.982;11.516;2023-08-31T10:06:15;5.45;;;1.90;;
71106;SDS011;58763;47.982;11.516;2023-08-31T10:08:41;3.15;;;1.42;;
71106;SDS011;58763;47.982;11.516;2023-08-31T10:11:08;3.70;;;1.48;;
71106;SDS011;58763;47.982;11.516;2023-08-31T10:13:38;2.97;;;1.30;;
71106;SDS011;58763;47.982;11.516;2023-08-31T10:16:05;3.72;;;1.70;;
71106;SDS011;58763;47.982;11.516;2023-08-31T10:18:32;3.97;;;1.55;;
71106;SDS011;58763;47.982;11.516;2023-08-31T10:21:00;3.78;;;1.42;;
71106;SDS011;58763;47.982;11.516;2023-08-31T10:23:27;5.30;;;1.58;;
71106;SDS011;58763;47.982;11.516;2023-08-31T10:28:23;4.18;;;1.60;;
71106;SDS011;58763;47.982;11.516;2023-08-31T10:33:31;3.78;;;1.60;;
71106;SDS011;58763;47.982;11.516;2023-08-31T10:36:00;3.13;;;1.37;;
71106;SDS011;58763;47.982;11.516;2023-08-31T10:38:27;2.90;;;1.40;;
71106;SDS011;58763;47.982;11.516;2023-08-31T10:41:00;3.13;;;1.17;;
71106;SDS011;58763;47.982;11.516;2023-08-31T10:43:42;4.55;;;1.60;;
71106;SDS011;58763;47.982;11.516;2023-08-31T10:46:17;4.23;;;1.23;;
71106;SDS011;58763;47.982;11.516;2023-08-31T10:48:52;5.50;;;1.48;;
71106;SDS011;58763;47.982;11.516;2023-08-31T10:51:23;3.83;;;1.60;;
71106;SDS011;58763;47.982;11.516;2023-08-31T10:53:49;3.33;;;1.30;;
71106;SDS011;58763;47.982;11.516;2023-08-31T10:56:15;4.35;;;1.40;;
71106;SDS011;58763;47.982;11.516;2023-08-31T10:58:42;2.67;;;1.10;;
71106;SDS011;58763;47.982;11.516;2023-08-31T11:01:09;3.67;;;1.60;;
71106;SDS011;58763;47.982;11.516;2023-08-31T11:06:23;2.60;;;1.30;;
71106;SDS011;58763;47.982;11.516;2023-08-31T11:08:53;3.08;;;1.30;;
71106;SDS011;58763;47.982;11.516;2023-08-31T11:11:19;4.15;;;1.45;;
71106;SDS011;58763;47.982;11.516;2023-08-31T11:13:45;5.20;;;1.42;;
71106;SDS011;58763;47.982;11.516;2023-08-31T11:16:10;2.42;;;1.17;;
71106;SDS011;58763;47.982;11.516;2023-08-31T11:18:36;3.30;;;1.38;;
71106;SDS011;58763;47.982;11.516;2023-08-31T11:21:02;3.15;;;1.20;;
71106;SDS011;58763;47.982;11.516;2023-08-31T11:23:31;3.05;;;1.17;;
71106;SDS011;58763;47.982;11.516;2023-08-31T11:25:56;4.85;;;1.38;;
71106;SDS011;58763;47.982;11.516;2023-08-31T11:28:22;2.97;;;1.25;;
71106;SDS011;58763;47.982;11.516;2023-08-31T11:30:48;4.60;;;1.35;;
71106;SDS011;58763;47.982;11.516;2023-08-31T11:33:13;2.65;;;1.23;;
71106;SDS011;58763;47.982;11.516;2023-08-31T11:35:40;2.70;;;1.13;;
71106;SDS011;58763;47.982;11.516;2023-08-31T11:38:08;4.22;;;1.23;;
71106;SDS011;58763;47.982;11.516;2023-08-31T11:40:35;3.88;;;1.50;;
71106;SDS011;58763;47.982;11.516;2023-08-31T11:43:01;3.83;;;1.30;;
71106;SDS011;58763;47.982;11.516;2023-08-31T11:45:30;5.03;;;1.52;;
71106;SDS011;58763;47.982;11.516;2023-08-31T11:47:56;4.05;;;1.50;;
71106;SDS011;58763;47.982;11.516;2023-08-31T11:50:23;3.97;;;1.48;;
71106;SDS011;58763;47.982;11.516;2023-08-31T11:52:50;4.47;;;1.40;;
71106;SDS011;58763;47.982;11.516;2023-08-31T11:55:18;4.78;;;1.30;;
71106;SDS011;58763;47.982;11.516;2023-08-31T11:57:50;3.58;;;1.40;;
71106;SDS011;58763;47.982;11.516;2023-08-31T12:00:18;6.00;;;1.30;;
71106;SDS011;58763;47.982;11.516;2023-08-31T12:02:45;3.15;;;1.38;;
71106;SDS011;58763;47.982;11.516;2023-08-31T12:05:14;3.53;;;1.45;;
71106;SDS011;58763;47.982;11.516;2023-08-31T12:07:40;4.28;;;1.42;;
71106;SDS011;58763;47.982;11.516;2023-08-31T12:10:06;5.28;;;1.70;;
71106;SDS011;58763;47.982;11.516;2023-08-31T12:12:34;4.63;;;1.70;;
71106;SDS011;58763;47.982;11.516;2023-08-31T12:15:01;5.15;;;1.80;;
71106;SDS011;58763;47.982;11.516;2023-08-31T12:17:28;6.30;;;1.70;;
71106;SDS011;58763;47.982;11.516;2023-08-31T12:20:01;3.92;;;1.73;;
71106;SDS011;58763;47.982;11.516;2023-08-31T12:22:30;3.88;;;1.75;;
71106;SDS011;58763;47.982;11.516;2023-08-31T12:24:55;5.20;;;2.35;;
71106;SDS011;58763;47.982;11.516;2023-08-31T12:27:21;4.43;;;1.80;;
71106;SDS011;58763;47.982;11.516;2023-08-31T12:29:46;4.53;;;1.88;;
71106;SDS011;58763;47.982;11.516;2023-08-31T12:32:12;4.32;;;1.50;;
71106;SDS011;58763;47.982;11.516;2023-08-31T12:34:37;4.85;;;1.70;;
71106;SDS011;58763;47.982;11.516;2023-08-31T12:37:03;5.75;;;1.55;;
71106;SDS011;58763;47.982;11.516;2023-08-31T12:39:29;4.38;;;1.63;;
71106;SDS011;58763;47.982;11.516;2023-08-31T12:41:56;5.25;;;1.70;;
71106;SDS011;58763;47.982;11.516;2023-08-31T12:44:21;4.82;;;2.10;;
71106;SDS011;58763;47.982;11.516;2023-08-31T12:46:47;5.07;;;1.88;;
71106;SDS011;58763;47.982;11.516;2023-08-31T12:49:12;6.15;;;1.75;;
71106;SDS011;58763;47.982;11.516;2023-08-31T12:51:38;4.05;;;1.60;;
71106;SDS011;58763;47.982;11.516;2023-08-31T12:54:03;4.13;;;2.13;;
71106;SDS011;58763;47.982;11.516;2023-08-31T12:56:29;4.50;;;1.95;;
71106;SDS011;58763;47.982;11.516;2023-08-31T12:58:54;3.80;;;1.60;;
71106;SDS011;58763;47.982;11.516;2023-08-31T13:01:20;4.53;;;1.52;;
71106;SDS011;58763;47.982;11.516;2023-08-31T13:03:48;3.92;;;1.75;;
71106;SDS011;58763;47.982;11.516;2023-08-31T13:06:15;5.25;;;1.70;;
71106;SDS011;58763;47.982;11.516;2023-08-31T13:08:42;5.55;;;1.85;;
71106;SDS011;58763;47.982;11.516;2023-08-31T13:11:09;4.15;;;1.60;;
71106;SDS011;58763;47.982;11.516;2023-08-31T13:13:35;4.43;;;1.52;;
71106;SDS011;58763;47.982;11.516;2023-08-31T13:16:00;4.53;;;1.58;;
71106;SDS011;58763;47.982;11.516;2023-08-31T13:18:27;4.80;;;1.75;;
71106;SDS011;58763;47.982;11.516;2023-08-31T13:20:53;3.92;;;1.80;;
71106;SDS011;58763;47.982;11.516;2023-08-31T13:23:20;4.22;;;1.50;;
71106;SDS011;58763;47.982;11.516;2023-08-31T13:25:46;4.32;;;1.90;;
71106;SDS011;58763;47.982;11.516;2023-08-31T13:28:12;4.65;;;1.60;;
71106;SDS011;58763;47.982;11.516;2023-08-31T13:30:38;8.52;;;1.77;;
71106;SDS011;58763;47.982;11.516;2023-08-31T13:33:04;3.95;;;1.45;;
71106;SDS011;58763;47.982;11.516;2023-08-31T13:35:30;3.80;;;1.42;;
71106;SDS011;58763;47.982;11.516;2023-08-31T13:37:56;5.35;;;1.70;;
71106;SDS011;58763;47.982;11.516;2023-08-31T13:40:22;4.72;;;1.60;;
71106;SDS011;58763;47.982;11.516;2023-08-31T13:42:57;5.03;;;1.60;;
71106;SDS011;58763;47.982;11.516;2023-08-31T13:45:28;4.97;;;1.83;;
71106;SDS011;58763;47.982;11.516;2023-08-31T13:47:56;4.35;;;1.58;;
71106;SDS011;58763;47.982;11.516;2023-08-31T13:50:22;7.70;;;1.70;;
71106;SDS011;58763;47.982;11.516;2023-08-31T13:52:48;4.63;;;1.50;;
71106;SDS011;58763;47.982;11.516;2023-08-31T13:55:13;5.07;;;1.70;;
71106;SDS011;58763;47.982;11.516;2023-08-31T13:57:41;5.20;;;1.85;;
71106;SDS011;58763;47.982;11.516;2023-08-31T14:00:08;6.00;;;1.80;;
71106;SDS011;58763;47.982;11.516;2023-08-31T14:02:37;5.38;;;2.10;;
71106;SDS011;58763;47.982;11.516;2023-08-31T14:05:03;3.92;;;1.48;;
71106;SDS011;58763;47.982;11.516;2023-08-31T14:07:31;4.75;;;1.92;;
71106;SDS011;58763;47.982;11.516;2023-08-31T14:09:57;3.78;;;1.73;;
71106;SDS011;58763;47.982;11.516;2023-08-31T14:12:23;5.10;;;1.90;;
71106;SDS011;58763;47.982;11.516;2023-08-31T14:14:50;4.93;;;1.80;;
71106;SDS011;58763;47.982;11.516;2023-08-31T14:17:16;4.18;;;1.40;;
71106;SDS011;58763;47.982;11.516;2023-08-31T14:19:41;4.03;;;1.58;;
71106;SDS011;58763;47.982;11.516;2023-08-31T14:22:07;5.32;;;1.60;;
71106;SDS011;58763;47.982;11.516;2023-08-31T14:24:35;5.38;;;1.67;;
71106;SDS011;58763;47.982;11.516;2023-08-31T14:27:02;3.33;;;1.40;;
71106;SDS011;58763;47.982;11.516;2023-08-31T14:29:28;6.00;;;1.60;;
71106;SDS011;58763;47.982;11.516;2023-08-31T14:31:54;5.57;;;1.80;;
71106;SDS011;58763;47.982;11.516;2023-08-31T14:34:21;5.07;;;1.70;;
71106;SDS011;58763;47.982;11.516;2023-08-31T14:36:46;4.72;;;1.95;;
71106;SDS011;58763;47.982;11.516;2023-08-31T14:39:12;5.57;;;1.60;;
71106;SDS011;58763;47.982;11.516;2023-08-31T14:41:37;4.50;;;1.63;;
71106;SDS011;58763;47.982;11.516;2023-08-31T14:44:03;6.28;;;1.77;;